Time;durP1;ratioP1;P1;durP2;ratioP2;P2;SDS_P1;SDS_P2;PMS_P1;PMS_P2;Temp;Humidity;BMP_temperature;BMP_pressure;BME280_temperature;BME280_humidity;BME280_pressure;Samples;Min_cycle;Max_cycle;Signal;HPM_P1;HPM_P2
2023/12/14 00:02:20;;;;;;;30.38;16.02;;;;;;;6.00;100.00;100697.97;5069679;28;20059;-70
2023/12/14 00:05:39;;;;;;;30.73;15.77;;;;;;;5.95;100.00;100703.25;5061907;28;20516;-70
2023/12/14 00:08:47;;;;;;;27.88;15.57;;;;;;;5.97;100.00;100716.28;5066333;28;20539;-70
2023/12/14 00:12:00;;;;;;;26.33;15.30;;;;;;;5.96;100.00;100712.81;5067662;28;20063;-71
2023/12/14 00:14:59;;;;;;;29.08;16.30;;;;;;;5.89;100.00;100725.13;5071502;28;20139;-71
2023/12/14 00:17:51;;;;;;;29.63;16.08;;;;;;;5.90;100.00;100731.25;5068343;28;20397;-72
2023/12/14 00:20:58;;;;;;;27.85;15.90;;;;;;;5.88;100.00;100744.31;5060480;28;20427;-71
2023/12/14 00:23:42;;;;;;;30.30;16.13;;;;;;;5.86;100.00;100755.69;5058583;28;20052;-72
2023/12/14 00:26:09;;;;;;;28.60;15.68;;;;;;;5.85;100.00;100757.44;5068843;28;20396;-72
2023/12/14 00:28:36;;;;;;;27.08;15.23;;;;;;;5.86;100.00;100755.69;5066900;28;20101;-72
2023/12/14 00:31:04;;;;;;;26.50;15.63;;;;;;;5.84;100.00;100765.31;5068361;28;20094;-71
2023/12/14 00:33:32;;;;;;;31.17;17.15;;;;;;;5.82;100.00;100759.22;5083761;28;20106;-72
2023/12/14 00:35:59;;;;;;;34.67;18.48;;;;;;;5.80;100.00;100776.72;5069383;28;20037;-72
2023/12/14 00:38:26;;;;;;;29.73;17.25;;;;;;;5.82;100.00;100786.25;5068316;28;20151;-71
2023/12/14 00:40:53;;;;;;;34.13;17.90;;;;;;;5.80;100.00;100793.25;5069050;28;20082;-70
2023/12/14 00:43:20;;;;;;;32.83;17.92;;;;;;;5.79;100.00;100788.91;5066863;28;20105;-72
2023/12/14 00:45:47;;;;;;;37.70;19.25;;;;;;;5.79;100.00;100788.06;5050726;28;20141;-72
2023/12/14 00:48:14;;;;;;;34.70;17.58;;;;;;;5.79;100.00;100803.75;5068635;28;20056;-72
2023/12/14 00:50:41;;;;;;;31.70;18.17;;;;;;;5.78;100.00;100815.09;5067803;28;20063;-71
2023/12/14 00:53:08;;;;;;;35.75;17.95;;;;;;;5.78;100.00;100815.09;5067670;28;20041;-71
2023/12/14 00:55:35;;;;;;;31.08;18.10;;;;;;;5.74;100.00;100824.72;5066704;28;20405;-70
2023/12/14 00:58:03;;;;;;;32.08;18.30;;;;;;;5.75;100.00;100827.31;5069222;28;20052;-69
2023/12/14 01:00:31;;;;;;;34.58;18.48;;;;;;;5.71;100.00;100830.84;5068949;28;20040;-70
2023/12/14 01:02:58;;;;;;;31.83;16.75;;;;;;;5.69;100.00;100839.59;5069389;28;20053;-70
2023/12/14 01:05:25;;;;;;;33.58;16.30;;;;;;;5.67;100.00;100841.34;5071162;28;20044;-70
2023/12/14 01:07:52;;;;;;;36.17;18.10;;;;;;;5.64;100.00;100844.88;5067362;28;20045;-71
2023/12/14 01:10:19;;;;;;;34.60;18.08;;;;;;;5.62;100.00;100856.22;5069271;28;20131;-71
2023/12/14 01:12:46;;;;;;;35.03;17.52;;;;;;;5.63;100.00;100857.97;5069848;28;20052;-70
2023/12/14 01:15:13;;;;;;;33.05;18.25;;;;;;;5.67;100.00;100862.28;5067620;28;20592;-70
2023/12/14 01:17:40;;;;;;;37.70;19.95;;;;;;;5.62;100.00;100864.09;5068167;28;20094;-71
2023/12/14 01:20:09;;;;;;;33.55;17.33;;;;;;;5.64;100.00;100862.31;5068067;28;20051;-70
2023/12/14 01:22:37;;;;;;;33.47;18.25;;;;;;;5.63;100.00;100856.22;5068199;28;20040;-71
2023/12/14 01:25:04;;;;;;;34.67;19.02;;;;;;;5.60;100.00;100867.56;5048592;28;20103;-71
2023/12/14 01:27:31;;;;;;;40.38;18.67;;;;;;;5.54;100.00;100875.50;5063250;28;20044;-72
2023/12/14 01:29:59;;;;;;;36.58;18.40;;;;;;;5.50;100.00;100876.38;5068696;28;20056;-70
2023/12/14 01:32:26;;;;;;;38.33;18.45;;;;;;;5.49;100.00;100885.09;5064476;28;20063;-71
2023/12/14 01:34:53;;;;;;;31.83;17.40;;;;;;;5.46;100.00;100889.50;5068277;28;20545;-71
2023/12/14 01:37:20;;;;;;;35.50;18.17;;;;;;;5.46;100.00;100889.50;5065029;28;20039;-71
2023/12/14 01:39:47;;;;;;;37.67;18.90;;;;;;;5.45;100.00;100901.69;5067840;28;20064;-71
2023/12/14 01:42:14;;;;;;;38.42;19.10;;;;;;;5.44;100.00;100889.53;5067576;28;20139;-72
2023/12/14 01:44:41;;;;;;;44.55;21.50;;;;;;;5.44;100.00;100898.22;5068048;28;20067;-72
2023/12/14 01:47:09;;;;;;;43.17;20.85;;;;;;;5.43;100.00;100911.31;5048495;28;20111;-72
2023/12/14 01:49:36;;;;;;;45.13;22.08;;;;;;;5.42;100.00;100914.81;5069182;28;20131;-72
2023/12/14 01:52:04;;;;;;;46.03;21.80;;;;;;;5.41;100.00;100911.31;5066851;28;20071;-72
2023/12/14 01:54:31;;;;;;;44.97;20.65;;;;;;;5.43;100.00;100924.38;5068714;28;20072;-71
2023/12/14 01:56:59;;;;;;;42.30;19.98;;;;;;;5.39;100.00;100939.22;5068845;28;20033;-72
2023/12/14 01:59:26;;;;;;;45.60;19.92;;;;;;;5.39;100.00;100951.44;5084074;28;20045;-71
2023/12/14 02:01:56;;;;;;;47.55;21.70;;;;;;;5.33;100.00;100948.88;5082469;28;20135;-72
2023/12/14 02:04:25;;;;;;;43.90;20.17;;;;;;;5.33;100.00;100959.31;5066335;28;20048;-71
2023/12/14 02:06:53;;;;;;;44.85;21.48;;;;;;;5.28;100.00;100970.66;5068822;28;20063;-71
2023/12/14 02:09:20;;;;;;;47.05;21.40;;;;;;;5.22;100.00;100957.66;5067856;28;20087;-71
2023/12/14 02:11:47;;;;;;;58.47;24.05;;;;;;;5.23;100.00;100959.38;5066899;28;20037;-72
2023/12/14 02:14:14;;;;;;;48.03;23.55;;;;;;;5.21;100.00;100968.09;5066949;28;20572;-71
2023/12/14 02:16:41;;;;;;;47.20;24.02;;;;;;;5.22;100.00;100977.66;5064439;28;20184;-71
2023/12/14 02:19:09;;;;;;;56.13;22.60;;;;;;;5.19;100.00;100972.50;5066182;28;20046;-72
2023/12/14 02:21:36;;;;;;;44.60;21.77;;;;;;;5.17;100.00;100977.69;5066764;28;20225;-72
2023/12/14 02:24:03;;;;;;;53.33;25.02;;;;;;;5.13;100.00;100976.00;5066957;28;20072;-72
2023/12/14 02:26:30;;;;;;;52.47;22.65;;;;;;;5.11;100.00;100978.59;5066264;28;20080;-71
2023/12/14 02:28:58;;;;;;;46.45;21.55;;;;;;;5.11;100.00;100983.81;5083303;28;20157;-72
2023/12/14 02:31:25;;;;;;;45.70;21.92;;;;;;;5.07;100.00;100981.25;5066155;28;20511;-71
2023/12/14 02:33:52;;;;;;;35.03;18.90;;;;;;;5.08;100.00;100991.72;5067312;28;20135;-71
2023/12/14 02:36:19;;;;;;;35.00;18.52;;;;;;;5.05;100.00;100996.94;5066802;28;20048;-71
2023/12/14 02:38:46;;;;;;;31.65;17.98;;;;;;;5.06;100.00;101003.03;5065962;28;20435;-71
2023/12/14 02:41:14;;;;;;;35.88;18.58;;;;;;;5.03;100.00;101000.44;5062857;28;20041;-71
2023/12/14 02:43:41;;;;;;;41.95;23.00;;;;;;;5.03;100.00;101003.06;5067730;28;20439;-71
2023/12/14 02:46:08;;;;;;;39.78;20.60;;;;;;;5.04;100.00;100997.81;5065705;28;20040;-71
2023/12/14 02:48:36;;;;;;;41.22;23.10;;;;;;;5.04;100.00;101005.66;5066305;28;20175;-71
2023/12/14 02:51:03;;;;;;;41.33;23.45;;;;;;;5.02;100.00;101012.63;5066573;28;20032;-71
2023/12/14 02:53:30;;;;;;;42.38;21.65;;;;;;;5.04;100.00;101025.66;5070569;28;20159;-71
2023/12/14 02:56:02;;;;;;;45.05;23.67;;;;;;;5.03;100.00;101024.81;5070397;28;20298;-71
2023/12/14 02:58:29;;;;;;;42.45;22.35;;;;;;;5.04;100.00;101039.63;5069875;28;20047;-70
2023/12/14 03:00:56;;;;;;;41.28;22.90;;;;;;;5.03;100.00;101029.19;5061150;28;20102;-71
2023/12/14 03:03:23;;;;;;;43.38;21.98;;;;;;;5.04;100.00;101042.25;5070179;28;20044;-70
2023/12/14 03:05:50;;;;;;;46.28;22.95;;;;;;;5.04;100.00;101043.97;5079291;28;20047;-71
2023/12/14 03:08:17;;;;;;;39.75;21.02;;;;;;;5.03;100.00;101052.72;5072061;28;20037;-70
2023/12/14 03:10:44;;;;;;;34.72;20.50;;;;;;;5.02;100.00;101050.97;5070704;28;20132;-70
2023/12/14 03:13:11;;;;;;;36.45;21.02;;;;;;;5.00;100.00;101056.19;5069719;28;20522;-70
2023/12/14 03:15:39;;;;;;;34.70;21.35;;;;;;;5.00;100.00;101057.94;5069141;28;20048;-70
2023/12/14 03:18:06;;;;;;;30.85;18.27;;;;;;;5.03;100.00;101063.16;5070377;28;20139;-71
2023/12/14 03:20:33;;;;;;;35.10;19.77;;;;;;;5.01;100.00;101067.53;5071339;28;20054;-71
2023/12/14 03:23:00;;;;;;;30.05;17.90;;;;;;;4.98;100.00;101074.47;5070075;28;20110;-72
2023/12/14 03:25:27;;;;;;;30.55;17.30;;;;;;;4.95;100.00;101061.41;5069484;28;20040;-71
2023/12/14 03:27:54;;;;;;;28.30;16.80;;;;;;;4.95;100.00;101068.41;5070295;28;20545;-71
2023/12/14 03:30:21;;;;;;;29.45;18.83;;;;;;;4.95;100.00;101076.25;5052978;28;20346;-72
2023/12/14 03:32:48;;;;;;;29.52;18.70;;;;;;;4.95;100.00;101081.47;5068404;28;20048;-71
2023/12/14 03:35:16;;;;;;;31.00;19.95;;;;;;;4.97;100.00;101077.97;5069417;28;20053;-72
2023/12/14 03:37:43;;;;;;;29.98;18.25;;;;;;;4.98;100.00;101084.09;5052019;28;20063;-71
2023/12/14 03:40:10;;;;;;;26.55;17.45;;;;;;;4.97;100.00;101092.78;5069992;28;20097;-71
2023/12/14 03:42:37;;;;;;;27.40;17.27;;;;;;;4.96;100.00;101089.28;5070187;28;20130;-71
2023/12/14 03:45:05;;;;;;;28.48;17.92;;;;;;;4.95;100.00;101094.53;5068377;28;20037;-71
2023/12/14 03:47:32;;;;;;;27.52;17.35;;;;;;;5.00;100.00;101099.75;5066066;28;20687;-71
2023/12/14 03:49:59;;;;;;;26.15;17.38;;;;;;;4.98;100.00;101100.63;5067983;28;20115;-71
2023/12/14 03:52:28;;;;;;;28.05;18.95;;;;;;;4.95;100.00;101102.38;5068954;28;20079;-71
2023/12/14 03:54:55;;;;;;;29.45;18.67;;;;;;;4.97;100.00;101118.91;5067978;28;20529;-71
2023/12/14 03:57:22;;;;;;;26.08;17.58;;;;;;;4.97;100.00;101114.56;5067323;28;20480;-70
2023/12/14 03:59:49;;;;;;;25.15;16.45;;;;;;;4.98;100.00;101113.69;5068703;28;20037;-70
2023/12/14 04:02:16;;;;;;;29.42;17.17;;;;;;;4.96;100.00;101118.03;5067707;28;20567;-71
2023/12/14 04:04:43;;;;;;;24.42;17.05;;;;;;;4.97;100.00;101125.00;5070986;28;20052;-71
2023/12/14 04:07:10;;;;;;;24.27;16.17;;;;;;;4.93;100.00;101125.91;5090174;28;20122;-71
2023/12/14 04:09:37;;;;;;;25.33;17.13;;;;;;;4.96;100.00;101125.03;5088921;28;20078;-71
2023/12/14 04:12:05;;;;;;;26.73;17.77;;;;;;;4.92;100.00;101129.38;5085589;28;20492;-71
2023/12/14 04:14:32;;;;;;;26.92;17.38;;;;;;;4.93;100.00;101133.75;5067794;28;20109;-72
2023/12/14 04:16:59;;;;;;;30.80;17.45;;;;;;;4.95;100.00;101139.81;5069965;28;20051;-73
2023/12/14 04:19:26;;;;;;;25.73;16.02;;;;;;;4.96;100.00;101138.94;5068813;28;20044;-72
2023/12/14 04:21:53;;;;;;;24.60;16.52;;;;;;;4.98;100.00;101141.56;5068225;28;20047;-71
2023/12/14 04:24:21;;;;;;;23.63;16.58;;;;;;;4.95;100.00;101131.97;5066611;28;20110;-71
2023/12/14 04:26:49;;;;;;;20.55;15.63;;;;;;;4.97;100.00;101142.44;5067316;28;20040;-71
2023/12/14 04:29:16;;;;;;;24.27;16.05;;;;;;;4.96;100.00;101144.16;5067427;28;20056;-72
2023/12/14 04:31:43;;;;;;;21.88;15.35;;;;;;;4.94;100.00;101151.13;5066162;28;20054;-72
2023/12/14 04:34:15;;;;;;;24.55;16.27;;;;;;;4.91;100.00;101156.38;5080980;28;20048;-72
2023/12/14 04:36:42;;;;;;;25.27;15.70;;;;;;;4.92;100.00;101146.78;5066629;28;20123;-72
2023/12/14 04:39:09;;;;;;;25.88;16.98;;;;;;;4.92;100.00;101162.47;5064558;28;20041;-72
2023/12/14 04:41:37;;;;;;;24.80;15.57;;;;;;;4.91;100.00;101164.22;5067986;28;20044;-72
2023/12/14 04:44:04;;;;;;;21.80;15.20;;;;;;;4.88;100.00;101164.22;5067089;28;20165;-72
2023/12/14 04:46:31;;;;;;;25.20;16.38;;;;;;;4.86;100.00;101168.56;5066858;28;20518;-72
2023/12/14 04:48:58;;;;;;;27.63;15.85;;;;;;;4.84;100.00;101172.91;5067710;28;20093;-71
2023/12/14 04:51:26;;;;;;;27.83;19.15;;;;;;;4.84;100.00;101172.06;5049645;28;20125;-71
2023/12/14 04:53:53;;;;;;;24.98;16.50;;;;;;;4.84;100.00;101180.75;5067036;28;20044;-71
2023/12/14 04:56:20;;;;;;;24.45;15.88;;;;;;;4.85;100.00;101186.88;5068779;28;20040;-71
2023/12/14 04:58:47;;;;;;;24.98;15.88;;;;;;;4.85;100.00;101189.47;5066971;28;20047;-71
2023/12/14 05:01:14;;;;;;;28.63;19.90;;;;;;;4.83;100.00;101197.34;5068050;28;20519;-72
2023/12/14 05:03:41;;;;;;;23.48;16.10;;;;;;;4.85;100.00;101208.63;5068380;28;20143;-71
2023/12/14 05:06:08;;;;;;;25.88;16.08;;;;;;;4.85;100.00;101210.38;5079077;28;20131;-72
2023/12/14 05:08:36;;;;;;;26.50;17.50;;;;;;;4.85;100.00;101215.59;5076179;28;20045;-72
2023/12/14 05:11:03;;;;;;;25.58;18.05;;;;;;;4.86;100.00;101214.75;5068926;28;20131;-72
2023/12/14 05:13:31;;;;;;;27.95;18.55;;;;;;;4.88;100.00;101229.53;5067414;28;20131;-72
2023/12/14 05:15:58;;;;;;;25.55;18.52;;;;;;;4.91;100.00;101237.38;5066451;28;20079;-72
2023/12/14 05:18:25;;;;;;;24.42;16.38;;;;;;;4.91;100.00;101242.59;5065683;28;20036;-71
2023/12/14 05:20:53;;;;;;;25.00;16.50;;;;;;;4.91;100.00;101252.16;5068527;28;20087;-72
2023/12/14 05:23:20;;;;;;;27.90;19.25;;;;;;;4.90;100.00;101248.69;5048267;28;20041;-71
2023/12/14 05:25:47;;;;;;;25.88;15.82;;;;;;;4.90;100.00;101243.47;5068256;28;20565;-71
2023/12/14 05:28:14;;;;;;;23.33;15.35;;;;;;;4.91;100.00;101258.28;5067173;28;20075;-70
2023/12/14 05:30:42;;;;;;;23.92;15.73;;;;;;;4.90;100.00;101268.72;5067061;28;20136;-70
2023/12/14 05:33:09;;;;;;;21.15;17.02;;;;;;;4.87;100.00;101266.97;5066512;28;20622;-70
2023/12/14 05:35:39;;;;;;;20.83;14.95;;;;;;;4.88;100.00;101270.47;5050421;28;20053;-70
2023/12/14 05:38:06;;;;;;;20.35;15.20;;;;;;;4.88;100.00;101275.72;5066354;28;20064;-70
2023/12/14 05:40:33;;;;;;;19.33;14.82;;;;;;;4.86;100.00;101285.28;5067107;28;20068;-71
2023/12/14 05:43:00;;;;;;;17.88;14.38;;;;;;;4.92;100.00;101280.94;5067233;28;20094;-69
2023/12/14 05:45:28;;;;;;;19.55;14.90;;;;;;;5.00;100.00;101285.28;5066557;28;20044;-69
2023/12/14 05:47:58;;;;;;;19.33;14.52;;;;;;;4.96;100.00;101287.88;5081375;28;20454;-69
2023/12/14 05:50:25;;;;;;;19.90;15.80;;;;;;;4.95;100.00;101301.81;5064536;28;20138;-69
2023/12/14 05:52:52;;;;;;;20.50;15.00;;;;;;;4.96;100.00;101306.16;5066609;28;20048;-70
2023/12/14 05:55:21;;;;;;;18.38;14.85;;;;;;;4.93;100.00;101305.31;5063846;28;20040;-70
2023/12/14 05:57:49;;;;;;;17.08;13.98;;;;;;;4.95;100.00;101314.88;5065750;28;20036;-70
2023/12/14 06:00:18;;;;;;;19.55;15.82;;;;;;;4.94;100.00;101323.59;5064753;28;20045;-70
2023/12/14 06:02:45;;;;;;;23.17;15.48;;;;;;;4.93;100.00;101332.31;5065862;28;20563;-70
2023/12/14 06:05:12;;;;;;;21.30;13.98;;;;;;;4.93;100.00;101334.03;5066149;28;20148;-70
2023/12/14 06:07:40;;;;;;;19.55;17.15;;;;;;;4.93;100.00;101334.94;5064167;28;20048;-69
2023/12/14 06:10:07;;;;;;;19.95;13.93;;;;;;;4.95;100.00;101335.78;5066847;28;20064;-70
2023/12/14 06:12:34;;;;;;;18.95;14.85;;;;;;;4.92;100.00;101348.88;5066468;28;20127;-70
2023/12/14 06:15:02;;;;;;;18.10;13.88;;;;;;;4.90;100.00;101344.47;5060033;28;20066;-70
2023/12/14 06:17:29;;;;;;;20.30;14.70;;;;;;;4.89;100.00;101355.81;5067146;28;20245;-70
2023/12/14 06:19:57;;;;;;;17.55;15.15;;;;;;;4.91;100.00;101369.75;5067037;28;20048;-71
2023/12/14 06:22:24;;;;;;;19.42;15.27;;;;;;;4.89;100.00;101382.81;5064976;28;20075;-71
2023/12/14 06:24:53;;;;;;;18.35;14.98;;;;;;;4.89;100.00;101381.94;5065279;28;20040;-70
2023/12/14 06:27:23;;;;;;;16.05;13.70;;;;;;;4.89;100.00;101389.75;5064636;28;20531;-70
2023/12/14 06:29:50;;;;;;;17.77;13.35;;;;;;;4.87;100.00;101388.91;5064388;28;20040;-70
2023/12/14 06:32:17;;;;;;;19.55;14.98;;;;;;;4.83;100.00;101393.28;5066389;28;20193;-70
2023/12/14 06:34:45;;;;;;;17.92;13.73;;;;;;;4.84;100.00;101396.75;5062494;28;20054;-71
2023/12/14 06:37:13;;;;;;;20.17;15.70;;;;;;;4.85;100.00;101401.97;5064158;28;20083;-70
2023/12/14 06:39:43;;;;;;;17.88;14.13;;;;;;;4.84;100.00;101399.34;5064863;28;20127;-70
2023/12/14 06:42:11;;;;;;;20.50;16.08;;;;;;;4.85;100.00;101401.09;5063968;28;20702;-70
2023/12/14 06:44:39;;;;;;;17.88;12.63;;;;;;;4.86;100.00;101401.09;5064992;28;20045;-70
2023/12/14 06:47:06;;;;;;;16.55;12.95;;;;;;;4.86;100.00;101406.31;5063839;28;20127;-71
2023/12/14 06:49:33;;;;;;;16.92;12.55;;;;;;;4.85;100.00;101406.31;5064232;28;20059;-71
2023/12/14 06:52:01;;;;;;;18.17;14.77;;;;;;;4.85;100.00;101407.19;5066865;28;20040;-70
2023/12/14 06:54:28;;;;;;;18.38;14.18;;;;;;;4.85;100.00;101416.78;5047021;28;20441;-70
2023/12/14 06:56:55;;;;;;;17.63;13.48;;;;;;;4.87;100.00;101415.91;5065114;28;20111;-71
2023/12/14 06:59:23;;;;;;;18.73;15.15;;;;;;;4.86;100.00;101423.75;5066645;28;20028;-71
2023/12/14 07:01:50;;;;;;;17.75;14.27;;;;;;;4.88;100.00;101435.09;5067573;28;20048;-71
2023/12/14 07:04:19;;;;;;;17.52;14.85;;;;;;;4.90;100.00;101439.44;5064700;28;20048;-70
2023/12/14 07:06:53;;;;;;;16.05;13.50;;;;;;;4.90;100.00;101426.38;5074604;28;20040;-71
2023/12/14 07:09:20;;;;;;;18.17;13.48;;;;;;;4.89;100.00;101435.06;5066502;28;20036;-71
2023/12/14 07:11:47;;;;;;;16.02;12.63;;;;;;;4.89;100.00;101431.56;5066476;28;20102;-70
2023/12/14 07:14:17;;;;;;;15.15;11.68;;;;;;;4.88;100.00;101437.69;5067727;28;20490;-71
2023/12/14 07:16:44;;;;;;;17.55;14.20;;;;;;;4.86;100.00;101445.50;5065564;28;20063;-71
2023/12/14 07:19:11;;;;;;;15.98;11.40;;;;;;;4.86;100.00;101442.03;5066509;28;20041;-71
2023/12/14 07:21:38;;;;;;;18.17;13.77;;;;;;;4.86;100.00;101453.34;5066735;28;20045;-71
2023/12/14 07:24:06;;;;;;;20.60;15.32;;;;;;;4.87;100.00;101455.09;5066723;28;20048;-70
2023/12/14 07:26:33;;;;;;;16.90;13.98;;;;;;;4.89;100.00;101469.03;5064411;28;20159;-71
2023/12/14 07:29:00;;;;;;;17.23;13.35;;;;;;;4.92;100.00;101471.69;5067903;28;20036;-71
2023/12/14 07:31:28;;;;;;;17.98;14.20;;;;;;;4.92;100.00;101479.50;5067322;28;20102;-71
2023/12/14 07:33:56;;;;;;;18.38;13.35;;;;;;;4.92;100.00;101482.13;5065132;28;20548;-71
2023/12/14 07:36:23;;;;;;;18.58;14.57;;;;;;;4.93;100.00;101482.97;5083927;28;20091;-71
2023/12/14 07:38:50;;;;;;;19.10;14.30;;;;;;;4.94;100.00;101492.56;5066065;28;20048;-71
2023/12/14 07:41:26;;;;;;;21.45;13.40;;;;;;;4.94;100.00;101496.03;5070052;28;20135;-71
2023/12/14 07:43:53;;;;;;;18.05;12.20;;;;;;;4.94;100.00;101498.66;5084304;28;20048;-71
2023/12/14 07:46:21;;;;;;;14.23;10.73;;;;;;;4.93;100.00;101499.56;5070900;28;20140;-70
2023/12/14 07:48:48;;;;;;;19.67;11.60;;;;;;;4.92;100.00;101513.47;5071740;28;20044;-70
2023/12/14 07:51:15;;;;;;;19.25;12.60;;;;;;;4.91;100.00;101510.84;5070582;28;20044;-71
2023/12/14 07:53:42;;;;;;;17.08;12.07;;;;;;;4.91;100.00;101527.41;5067272;28;20044;-71
2023/12/14 07:56:09;;;;;;;18.02;13.02;;;;;;;4.90;100.00;101527.38;5076541;28;20063;-73
2023/12/14 07:58:36;;;;;;;15.20;10.80;;;;;;;4.89;100.00;101531.75;5079428;28;20102;-71
2023/12/14 08:01:04;;;;;;;17.80;13.38;;;;;;;4.90;100.00;101543.06;5051183;28;20056;-72
2023/12/14 08:03:31;;;;;;;14.80;11.85;;;;;;;4.91;100.00;101542.19;5070058;28;20080;-71
2023/12/14 08:05:58;;;;;;;15.65;10.80;;;;;;;4.91;100.00;101550.94;5081444;28;20046;-71
2023/12/14 08:08:26;;;;;;;18.38;11.65;;;;;;;4.90;100.00;101563.97;5090153;28;20036;-71
2023/12/14 08:10:53;;;;;;;16.73;12.20;;;;;;;4.90;100.00;101572.69;5070575;28;20127;-71
2023/12/14 08:13:20;;;;;;;12.68;10.13;;;;;;;4.91;100.00;101579.66;5069950;28;20044;-71
2023/12/14 08:15:47;;;;;;;13.60;10.52;;;;;;;4.91;100.00;101578.78;5070328;28;20652;-71
2023/12/14 08:18:14;;;;;;;15.73;10.52;;;;;;;4.91;100.00;101571.84;5069740;28;20041;-71
2023/12/14 08:20:41;;;;;;;15.13;10.52;;;;;;;4.88;100.00;101589.25;5069175;28;20036;-71
2023/12/14 08:23:08;;;;;;;15.70;10.13;;;;;;;4.89;100.00;101590.97;5070412;28;20037;-71
2023/12/14 08:25:36;;;;;;;16.33;10.30;;;;;;;4.85;100.00;101591.81;5070186;28;20645;-71
2023/12/14 08:28:03;;;;;;;15.35;10.55;;;;;;;4.84;100.00;101595.31;5068571;28;20074;-71
2023/12/14 08:30:31;;;;;;;13.38;10.98;;;;;;;4.82;100.00;101604.00;5070738;28;20595;-71
2023/12/14 08:32:59;;;;;;;22.38;11.30;;;;;;;4.84;100.00;101603.13;5068275;28;20052;-71
2023/12/14 08:35:26;;;;;;;24.42;10.20;;;;;;;4.80;100.00;101605.72;5067416;28;20123;-71
2023/12/14 08:37:53;;;;;;;13.70;9.30;;;;;;;4.82;100.00;101621.44;5070219;28;20048;-71
2023/12/14 08:40:20;;;;;;;13.07;8.98;;;;;;;4.79;100.00;101617.03;5068676;28;20049;-71
2023/12/14 08:42:47;;;;;;;12.68;8.88;;;;;;;4.77;100.00;101621.41;5068395;28;20049;-71
2023/12/14 08:45:15;;;;;;;12.25;8.40;;;;;;;4.74;100.00;101620.47;5070042;28;20127;-71
2023/12/14 08:47:42;;;;;;;11.68;8.55;;;;;;;4.73;100.00;101624.00;5069447;28;20583;-71
2023/12/14 08:50:10;;;;;;;12.23;8.20;;;;;;;4.73;100.00;101634.44;5066979;28;20041;-71
2023/12/14 08:52:37;;;;;;;11.38;7.70;;;;;;;4.70;100.00;101634.41;5069064;28;20044;-71
2023/12/14 08:55:06;;;;;;;10.23;8.02;;;;;;;4.65;100.00;101650.91;5070387;28;20090;-71
2023/12/14 08:57:33;;;;;;;13.18;8.82;;;;;;;4.67;100.00;101635.25;5069038;28;20050;-71
2023/12/14 09:00:00;;;;;;;11.20;7.90;;;;;;;4.65;100.00;101650.03;5069257;28;20037;-71
2023/12/14 09:02:27;;;;;;;16.25;8.48;;;;;;;4.62;100.00;101652.63;5068143;28;20133;-71
2023/12/14 09:04:54;;;;;;;11.38;8.43;;;;;;;4.56;100.00;101653.44;5070962;28;20048;-71
2023/12/14 09:07:22;;;;;;;12.23;8.05;;;;;;;4.51;100.00;101657.78;5071187;28;20041;-71
2023/12/14 09:09:49;;;;;;;14.70;9.82;;;;;;;4.49;100.00;101662.97;5067919;28;20128;-71
2023/12/14 09:12:16;;;;;;;12.52;8.32;;;;;;;4.48;100.00;101665.59;5067516;28;20672;-71
2023/12/14 09:14:43;;;;;;;13.93;9.52;;;;;;;4.45;100.00;101671.66;5069257;28;20079;-71
2023/12/14 09:17:10;;;;;;;12.95;9.00;;;;;;;4.39;100.00;101673.34;5068809;28;20041;-71
2023/12/14 09:19:37;;;;;;;12.63;9.30;;;;;;;4.36;100.00;101684.63;5067806;28;20039;-71
2023/12/14 09:22:04;;;;;;;14.40;9.75;;;;;;;4.38;100.00;101689.88;5083515;28;20625;-71
2023/12/14 09:24:31;;;;;;;15.07;9.68;;;;;;;4.39;100.00;101702.06;5084165;28;20520;-71
2023/12/14 09:26:58;;;;;;;11.95;9.23;;;;;;;4.39;100.00;101695.09;5067887;28;20056;-71
2023/12/14 09:29:25;;;;;;;14.05;10.15;;;;;;;4.38;100.00;101695.94;5067589;28;20043;-71
2023/12/14 09:31:52;;;;;;;11.85;8.65;;;;;;;4.40;100.00;101698.59;5067183;28;20127;-71
2023/12/14 09:34:20;;;;;;;12.23;8.20;;;;;;;4.42;100.00;101696.88;5067567;28;20048;-71
2023/12/14 09:36:47;;;;;;;11.45;7.75;;;;;;;4.40;100.00;101704.66;5066087;28;20048;-71
2023/12/14 09:39:15;;;;;;;10.65;8.30;;;;;;;4.40;100.00;101711.66;5068674;28;20090;-72
2023/12/14 09:41:42;;;;;;;11.45;7.60;;;;;;;4.39;100.00;101720.34;5066816;28;20139;-71
2023/12/14 09:44:09;;;;;;;10.63;7.50;;;;;;;4.37;100.00;101715.13;5067361;28;20044;-71
2023/12/14 09:46:38;;;;;;;10.57;7.78;;;;;;;4.35;100.00;101722.06;5068288;28;20058;-71
2023/12/14 09:49:05;;;;;;;11.73;7.60;;;;;;;4.32;100.00;101727.22;5068096;28;20131;-71
2023/12/14 09:51:35;;;;;;;10.32;7.88;;;;;;;4.30;100.00;101735.06;5066232;28;20060;-71
2023/12/14 09:54:03;;;;;;;15.40;8.00;;;;;;;4.32;100.00;101735.91;5066607;28;20055;-71
2023/12/14 09:56:30;;;;;;;16.08;8.77;;;;;;;4.37;100.00;101748.16;5068016;28;20055;-71
2023/12/14 09:58:58;;;;;;;12.95;8.90;;;;;;;4.41;100.00;101745.59;5067087;28;20051;-71
2023/12/14 10:01:27;;;;;;;11.30;8.75;;;;;;;4.46;100.00;101748.25;5068642;28;20541;-71
2023/12/14 10:04:12;;;;;;;11.50;8.35;;;;;;;4.49;100.00;101758.72;5066725;28;20044;-71
2023/12/14 10:06:42;;;;;;;10.38;7.93;;;;;;;4.48;100.00;101747.41;5082918;28;20388;-71
2023/12/14 10:09:13;;;;;;;16.23;7.60;;;;;;;4.49;100.00;101756.13;5082567;28;20460;-71
2023/12/14 10:11:41;;;;;;;11.93;7.60;;;;;;;4.51;100.00;101764.84;5067866;28;20055;-71
2023/12/14 10:14:24;;;;;;;11.98;8.02;;;;;;;4.54;100.00;101764.00;5067797;28;20136;-71
2023/12/14 10:16:53;;;;;;;13.73;8.00;;;;;;;4.55;100.00;101768.38;5068253;28;20145;-71
2023/12/14 10:19:29;;;;;;;10.55;7.72;;;;;;;4.56;100.00;101776.19;5067421;28;20531;-71
2023/12/14 10:21:56;;;;;;;9.52;7.35;;;;;;;4.60;100.00;101777.09;5065433;28;20049;-71
2023/12/14 10:24:24;;;;;;;10.68;7.78;;;;;;;4.64;100.00;101789.34;5066753;28;20055;-71
2023/12/14 10:26:51;;;;;;;8.68;5.50;;;;;;;4.66;100.00;101785.88;5067379;28;20535;-70
2023/12/14 10:29:18;;;;;;;9.43;6.38;;;;;;;4.68;100.00;101787.63;5067968;28;20072;-71
2023/12/14 10:31:48;;;;;;;8.32;5.95;;;;;;;4.70;100.00;101799.84;5067808;28;20045;-70
2023/12/14 10:34:15;;;;;;;10.90;6.63;;;;;;;4.72;100.00;101805.09;5068162;28;20071;-70
2023/12/14 10:36:46;;;;;;;7.55;5.93;;;;;;;4.74;100.00;101803.34;5065441;28;20109;-70
2023/12/14 10:39:16;;;;;;;9.52;6.15;;;;;;;4.75;100.00;101813.84;5066143;28;20079;-70
2023/12/14 10:41:50;;;;;;;9.10;6.95;;;;;;;4.76;100.00;101812.97;5067270;28;20120;-70
2023/12/14 10:44:28;;;;;;;10.75;8.23;;;;;;;4.76;100.00;101819.91;5065514;28;20048;-70
2023/12/14 10:47:15;;;;;;;9.77;6.63;;;;;;;4.77;100.00;101821.69;5067483;28;20048;-71
2023/12/14 10:49:49;;;;;;;10.98;7.13;;;;;;;4.76;100.00;101826.03;5066905;28;20040;-71
2023/12/14 10:52:20;;;;;;;9.45;7.70;;;;;;;4.78;100.00;101826.03;5066265;28;20052;-71
2023/12/14 10:54:55;;;;;;;9.77;7.95;;;;;;;4.79;100.00;101823.44;5067805;28;20052;-71
2023/12/14 10:57:22;;;;;;;10.68;7.25;;;;;;;4.81;100.00;101826.09;5067758;28;20125;-72
2023/12/14 10:59:50;;;;;;;9.45;7.40;;;;;;;4.81;100.00;101826.94;5066004;28;20186;-71
2023/12/14 11:02:17;;;;;;;8.88;7.28;;;;;;;4.84;100.00;101822.63;5065696;28;20436;-71
2023/12/14 11:05:09;;;;;;;10.93;7.47;;;;;;;4.82;100.00;101825.22;5068312;28;20040;-71
2023/12/14 11:07:53;;;;;;;11.05;7.85;;;;;;;4.83;100.00;101832.22;5085608;28;20048;-71
2023/12/14 11:10:27;;;;;;;10.37;6.87;;;;;;;4.84;100.00;101822.63;5090108;28;20124;-71
2023/12/14 11:13:26;;;;;;;9.52;6.30;;;;;;;4.84;100.00;101825.22;5072153;28;20135;-71
2023/12/14 11:17:01;;;;;;;7.68;6.13;;;;;;;4.84;100.00;101820.00;5067387;28;20538;-71
2023/12/14 11:19:53;;;;;;;8.07;7.00;;;;;;;4.85;100.00;101829.59;5034099;28;20078;-71
2023/12/14 11:22:27;;;;;;;9.88;6.47;;;;;;;4.88;100.00;101830.50;5070412;28;20044;-71